createdAt,value
2018-10-17T00:02:14.981Z,46.03
2018-10-17T00:04:43.393Z,43.90
2018-10-17T00:07:11.852Z,38.60
2018-10-17T00:09:40.181Z,33.97
2018-10-17T00:12:08.572Z,39.93
2018-10-17T00:14:36.949Z,50.90
2018-10-17T00:17:06.040Z,42.23
2018-10-17T00:19:34.409Z,39.60
2018-10-17T00:22:02.797Z,44.93
2018-10-17T00:24:31.165Z,41.73
2018-10-17T00:26:59.586Z,41.70
2018-10-17T00:29:28.193Z,40.80
2018-10-17T00:31:56.585Z,39.60
2018-10-17T00:34:24.989Z,40.90
2018-10-17T00:36:53.383Z,40.20
2018-10-17T00:39:21.775Z,39.33
2018-10-17T00:41:50.145Z,36.50
2018-10-17T00:44:18.541Z,38.77
2018-10-17T00:46:46.907Z,41.40
2018-10-17T00:49:15.385Z,43.43
2018-10-17T00:51:43.681Z,36.00
2018-10-17T00:54:12.069Z,43.83
2018-10-17T00:56:40.438Z,42.50
2018-10-17T00:59:12.130Z,36.13
2018-10-17T01:01:40.657Z,36.30
2018-10-17T01:04:09.364Z,40.80
2018-10-17T01:06:38.234Z,32.80
2018-10-17T01:09:10.090Z,45.40
2018-10-17T01:11:38.977Z,46.13
2018-10-17T01:14:07.796Z,51.00
2018-10-17T01:16:36.167Z,33.37
2018-10-17T01:19:05.199Z,40.53
2018-10-17T01:21:34.237Z,30.93
2018-10-17T01:24:02.781Z,39.00
2018-10-17T01:26:31.157Z,41.83
2018-10-17T01:28:59.557Z,63.20
2018-10-17T01:31:28.266Z,45.67
2018-10-17T01:33:56.681Z,51.83
2018-10-17T01:36:25.045Z,58.03
2018-10-17T01:38:53.441Z,43.80
2018-10-17T01:41:21.813Z,54.70
2018-10-17T01:43:50.205Z,41.00
2018-10-17T01:46:18.568Z,41.90
2018-10-17T01:48:46.965Z,46.20
2018-10-17T01:51:15.327Z,49.87
2018-10-17T01:53:51.357Z,45.33
2018-10-17T01:56:19.725Z,42.43
2018-10-17T01:58:48.117Z,41.20
2018-10-17T02:01:16.501Z,44.70
2018-10-17T02:03:44.897Z,41.10
2018-10-17T02:06:13.313Z,42.10
2018-10-17T02:08:41.713Z,42.47
2018-10-17T02:11:10.101Z,49.80
2018-10-17T02:13:38.509Z,53.67
2018-10-17T02:16:06.889Z,49.57
2018-10-17T02:18:35.277Z,40.97
2018-10-17T02:21:03.656Z,30.87
2018-10-17T02:23:32.053Z,40.50
2018-10-17T02:26:00.421Z,41.43
2018-10-17T02:28:28.821Z,46.70
2018-10-17T02:30:57.223Z,39.63
2018-10-17T02:33:25.628Z,38.40
2018-10-17T02:35:54.002Z,33.67
2018-10-17T02:38:22.409Z,40.50
2018-10-17T02:40:50.900Z,34.77
2018-10-17T02:43:19.355Z,42.80
2018-10-17T02:45:47.686Z,47.33
2018-10-17T02:48:16.058Z,43.23
2018-10-17T02:50:44.453Z,39.13
2018-10-17T02:53:12.927Z,35.10
2018-10-17T02:55:41.324Z,48.40
2018-10-17T02:58:09.716Z,36.83
2018-10-17T03:00:38.127Z,33.57
2018-10-17T03:03:06.527Z,46.43
2018-10-17T03:05:34.922Z,55.20
2018-10-17T03:08:03.335Z,38.73
2018-10-17T03:10:31.758Z,47.77
2018-10-17T03:13:00.367Z,33.30
2018-10-17T03:15:28.767Z,37.10
2018-10-17T03:17:57.147Z,45.13
2018-10-17T03:20:25.555Z,42.77
2018-10-17T03:22:53.960Z,44.80
2018-10-17T03:25:22.360Z,52.17
2018-10-17T03:27:50.807Z,40.10
2018-10-17T03:30:19.208Z,40.30
2018-10-17T03:32:47.625Z,35.80
2018-10-17T03:35:16.121Z,38.83
2018-10-17T03:37:44.453Z,41.97
2018-10-17T03:40:12.861Z,44.23
2018-10-17T03:42:41.244Z,35.50
2018-10-17T03:45:09.655Z,38.63
2018-10-17T03:47:38.048Z,47.83
2018-10-17T03:50:06.475Z,34.07
2018-10-17T03:52:34.850Z,37.50
2018-10-17T03:55:03.304Z,39.27
2018-10-17T03:57:31.653Z,49.73
2018-10-17T04:00:00.048Z,39.97
2018-10-17T04:02:28.418Z,59.63
2018-10-17T04:04:56.832Z,37.93
2018-10-17T04:07:25.224Z,52.83
2018-10-17T04:09:53.618Z,36.87
2018-10-17T04:12:22.003Z,40.43
2018-10-17T04:14:50.421Z,36.20
2018-10-17T04:17:18.869Z,43.20
2018-10-17T04:19:47.224Z,44.73
2018-10-17T04:22:15.601Z,38.17
2018-10-17T04:24:44.011Z,38.90
2018-10-17T04:27:12.388Z,52.60
2018-10-17T04:29:40.819Z,50.67
2018-10-17T04:32:09.394Z,47.97
2018-10-17T04:34:37.801Z,43.87
2018-10-17T04:37:06.278Z,46.00
2018-10-17T04:39:34.648Z,53.27
2018-10-17T04:42:03.050Z,40.93
2018-10-17T04:44:31.431Z,41.03
2018-10-17T04:46:59.844Z,50.03
2018-10-17T04:49:28.222Z,47.57
2018-10-17T04:51:56.623Z,47.17
2018-10-17T04:54:24.999Z,50.43
2018-10-17T04:56:53.398Z,41.03
2018-10-17T04:59:21.780Z,47.33
2018-10-17T05:01:50.191Z,44.33
2018-10-17T05:04:18.585Z,42.90
2018-10-17T05:06:47.092Z,51.00
2018-10-17T05:09:15.678Z,45.90
2018-10-17T05:11:44.080Z,40.20
2018-10-17T05:14:12.457Z,40.67
2018-10-17T05:16:40.848Z,42.63
2018-10-17T05:19:09.263Z,38.73
2018-10-17T05:21:37.651Z,46.47
2018-10-17T05:24:06.044Z,39.87
2018-10-17T05:26:34.447Z,39.17
2018-10-17T05:29:02.909Z,44.87
2018-10-17T05:31:31.291Z,35.30
2018-10-17T05:33:59.667Z,50.37
2018-10-17T05:36:28.071Z,38.40
2018-10-17T05:38:56.472Z,56.90
2018-10-17T05:41:24.865Z,51.50
2018-10-17T05:43:53.333Z,48.93
2018-10-17T05:46:21.725Z,53.80
2018-10-17T05:48:50.211Z,51.53
2018-10-17T05:51:18.607Z,65.00
2018-10-17T05:53:46.978Z,61.03
2018-10-17T05:56:15.379Z,57.43
2018-10-17T05:58:43.757Z,53.70
2018-10-17T06:01:12.292Z,54.20
2018-10-17T06:03:40.575Z,45.30
2018-10-17T06:06:08.966Z,66.27
2018-10-17T06:08:37.361Z,51.23
2018-10-17T06:11:05.867Z,57.93
2018-10-17T06:13:34.233Z,66.67
2018-10-17T06:16:02.615Z,60.63
2018-10-17T06:18:31.035Z,73.90
2018-10-17T06:20:59.408Z,71.27
2018-10-17T06:23:27.811Z,59.43
2018-10-17T06:25:56.183Z,61.93
2018-10-17T06:28:24.618Z,73.27
2018-10-17T06:30:53.035Z,57.37
2018-10-17T06:33:21.425Z,67.47
2018-10-17T06:35:49.793Z,70.90
2018-10-17T06:38:18.194Z,67.17
2018-10-17T06:40:46.567Z,60.33
2018-10-17T06:43:15.089Z,101.53
2018-10-17T06:45:43.452Z,93.80
2018-10-17T06:48:11.846Z,100.17
2018-10-17T06:50:40.217Z,72.90
2018-10-17T06:53:08.735Z,64.40
2018-10-17T06:55:37.065Z,79.97
2018-10-17T06:58:05.607Z,86.97
2018-10-17T07:00:33.985Z,54.30
2018-10-17T07:03:02.391Z,71.97
2018-10-17T07:05:30.768Z,95.03
2018-10-17T07:07:59.187Z,100.03
2018-10-17T07:10:27.751Z,99.40
2018-10-17T07:12:56.225Z,77.33
2018-10-17T07:15:24.632Z,84.03
2018-10-17T07:17:52.995Z,175.80
2018-10-17T07:20:21.381Z,166.80
2018-10-17T07:22:49.791Z,119.00
2018-10-17T07:25:18.254Z,94.40
2018-10-17T07:27:46.619Z,133.13
2018-10-17T07:30:15.029Z,143.03
2018-10-17T07:32:43.420Z,70.23
2018-10-17T07:35:11.823Z,57.20
2018-10-17T07:37:40.202Z,63.60
2018-10-17T07:40:08.699Z,79.90
2018-10-17T07:42:37.083Z,52.90
2018-10-17T07:45:06.366Z,85.43
2018-10-17T07:47:34.780Z,75.63
2018-10-17T07:50:03.344Z,90.47
2018-10-17T07:52:31.735Z,80.43
2018-10-17T07:55:00.155Z,79.43
2018-10-17T07:57:28.547Z,99.93
2018-10-17T07:59:56.958Z,78.77
2018-10-17T08:02:25.343Z,95.27
2018-10-17T08:04:53.755Z,105.50
2018-10-17T08:07:22.139Z,78.07
2018-10-17T08:09:50.542Z,60.63
2018-10-17T08:12:19.006Z,76.20
2018-10-17T08:14:47.447Z,54.30
2018-10-17T08:17:15.835Z,77.07
2018-10-17T08:19:44.239Z,76.53
2018-10-17T08:22:12.619Z,68.90
2018-10-17T08:24:41.013Z,61.00
2018-10-17T08:27:09.407Z,65.20
2018-10-17T08:29:37.811Z,67.33
2018-10-17T08:32:07.387Z,57.30
2018-10-17T08:34:35.789Z,71.17
2018-10-17T08:37:04.516Z,63.13
2018-10-17T08:39:32.620Z,55.70
2018-10-17T08:42:01.005Z,55.43
2018-10-17T08:44:29.471Z,54.43
2018-10-17T08:46:57.855Z,58.03
2018-10-17T08:49:26.255Z,59.67
2018-10-17T08:51:54.643Z,93.20
2018-10-17T08:54:23.054Z,60.47
2018-10-17T08:56:51.434Z,65.60
2018-10-17T08:59:19.838Z,60.00
2018-10-17T09:01:48.229Z,46.90
2018-10-17T09:04:16.633Z,50.43
2018-10-17T09:06:45.010Z,57.30
2018-10-17T09:09:14.073Z,72.47
2018-10-17T09:11:42.783Z,55.80
2018-10-17T09:14:11.749Z,45.63
2018-10-17T09:16:40.577Z,68.27
2018-10-17T09:19:09.672Z,50.03
2018-10-17T09:21:38.487Z,62.00
2018-10-17T09:24:06.796Z,55.93
2018-10-17T09:26:35.227Z,56.57
2018-10-17T09:29:03.653Z,58.97
2018-10-17T09:31:32.078Z,55.30
2018-10-17T09:34:00.524Z,44.63
2018-10-17T09:36:28.903Z,39.13
2018-10-17T09:38:57.285Z,50.30
2018-10-17T09:41:25.696Z,44.73
2018-10-17T09:43:54.091Z,37.70
2018-10-17T09:46:22.513Z,50.53
2018-10-17T09:48:50.894Z,49.73
2018-10-17T09:51:19.298Z,42.63
2018-10-17T09:53:47.674Z,38.87
2018-10-17T09:56:16.070Z,39.33
2018-10-17T09:58:44.463Z,42.50
2018-10-17T10:01:16.523Z,45.63
2018-10-17T10:03:44.939Z,38.43
2018-10-17T10:06:13.524Z,76.50
2018-10-17T10:08:41.917Z,45.03
2018-10-17T10:11:10.422Z,43.00
2018-10-17T10:13:38.746Z,40.17
2018-10-17T10:16:07.186Z,48.80
2018-10-17T10:18:35.550Z,59.77
2018-10-17T10:21:03.959Z,43.17
2018-10-17T10:23:32.358Z,53.37
2018-10-17T10:26:00.869Z,35.40
2018-10-17T10:28:29.288Z,34.83
2018-10-17T10:30:57.712Z,46.60
2018-10-17T10:33:26.087Z,40.40
2018-10-17T10:35:54.497Z,52.13
2018-10-17T10:38:22.922Z,29.90
2018-10-17T10:40:51.321Z,43.57
2018-10-17T10:43:19.703Z,45.10
2018-10-17T10:45:48.121Z,48.40
2018-10-17T10:48:16.613Z,42.10
2018-10-17T10:50:44.930Z,55.47
2018-10-17T10:53:13.305Z,68.00
2018-10-17T10:55:41.701Z,49.53
2018-10-17T10:58:10.145Z,39.57
2018-10-17T11:00:39.535Z,45.07
2018-10-17T11:03:07.973Z,42.83
2018-10-17T11:05:36.351Z,56.57
2018-10-17T11:08:04.844Z,34.93
2018-10-17T11:10:33.166Z,30.23
2018-10-17T11:13:01.544Z,33.53
2018-10-17T11:15:29.931Z,40.30
2018-10-17T11:17:58.335Z,35.43
2018-10-17T11:20:26.723Z,50.93
2018-10-17T11:22:55.201Z,39.03
2018-10-17T11:25:23.552Z,27.90
2018-10-17T11:27:51.950Z,62.40
2018-10-17T11:30:20.446Z,37.70
2018-10-17T11:32:48.881Z,35.10
2018-10-17T11:35:17.399Z,34.23
2018-10-17T11:37:45.776Z,34.43
2018-10-17T11:40:14.260Z,46.50
2018-10-17T11:42:42.538Z,38.90
2018-10-17T11:45:10.989Z,33.23
2018-10-17T11:47:39.382Z,39.47
2018-10-17T11:50:09.183Z,44.77
2018-10-17T11:52:37.791Z,21.53
2018-10-17T11:55:06.332Z,26.30
2018-10-17T11:57:34.851Z,28.60
2018-10-17T12:00:03.478Z,24.70
2018-10-17T12:02:31.891Z,28.37
2018-10-17T12:05:00.469Z,34.63
2018-10-17T12:07:28.715Z,27.10
2018-10-17T12:09:57.111Z,26.17
2018-10-17T12:12:25.557Z,30.73
2018-10-17T12:14:54.064Z,40.17
2018-10-17T12:17:22.455Z,36.80
2018-10-17T12:19:50.903Z,30.63
2018-10-17T12:22:19.267Z,28.67
2018-10-17T12:24:47.659Z,27.97
2018-10-17T12:27:16.145Z,30.43
2018-10-17T12:29:44.501Z,23.50
2018-10-17T12:32:12.927Z,24.60
2018-10-17T12:34:41.431Z,25.97
2018-10-17T12:37:09.822Z,27.43
2018-10-17T12:39:38.215Z,30.07
2018-10-17T12:42:06.623Z,29.40
2018-10-17T12:44:35.011Z,33.57
2018-10-17T12:47:03.434Z,30.50
2018-10-17T12:49:31.849Z,40.33
2018-10-17T12:52:00.287Z,34.00
2018-10-17T12:54:28.669Z,29.80
2018-10-17T12:56:57.039Z,20.30
2018-10-17T12:59:25.444Z,31.83
2018-10-17T13:01:53.831Z,31.57
2018-10-17T13:04:22.232Z,27.10
2018-10-17T13:06:50.609Z,23.80
2018-10-17T13:09:19.001Z,42.63
2018-10-17T13:11:47.433Z,32.30
2018-10-17T13:14:15.849Z,34.50
2018-10-17T13:16:44.235Z,29.00
2018-10-17T13:19:12.705Z,32.70
2018-10-17T13:21:41.044Z,25.93
2018-10-17T13:24:09.451Z,39.83
2018-10-17T13:26:37.821Z,32.67
2018-10-17T13:29:06.661Z,33.83
2018-10-17T13:31:35.019Z,33.87
2018-10-17T13:34:03.482Z,33.60
2018-10-17T13:36:31.866Z,28.63
2018-10-17T13:39:00.357Z,29.33
2018-10-17T13:41:28.733Z,23.57
2018-10-17T13:43:57.129Z,31.00
2018-10-17T13:46:25.514Z,36.20
2018-10-17T13:48:53.959Z,27.63
2018-10-17T13:51:22.343Z,27.50
2018-10-17T13:53:50.747Z,27.37
2018-10-17T13:56:19.235Z,28.83
2018-10-17T13:58:47.641Z,31.43
2018-10-17T14:01:16.098Z,48.53
2018-10-17T14:03:44.459Z,20.17
2018-10-17T14:06:12.919Z,29.33
2018-10-17T14:08:41.281Z,21.43
2018-10-17T14:11:09.665Z,39.23
2018-10-17T14:13:38.086Z,26.40
2018-10-17T14:16:06.749Z,20.80
2018-10-17T14:18:35.149Z,22.13
2018-10-17T14:21:03.599Z,29.83
2018-10-17T14:23:32.055Z,32.67
2018-10-17T14:26:00.589Z,27.27
2018-10-17T14:28:28.999Z,26.77
2018-10-17T14:30:59.125Z,25.50
2018-10-17T14:33:27.518Z,27.87
2018-10-17T14:35:56.022Z,31.37
2018-10-17T14:38:24.326Z,23.23
2018-10-17T14:40:52.719Z,30.20
2018-10-17T14:43:21.125Z,27.70
2018-10-17T14:45:49.540Z,29.70
2018-10-17T14:48:18.048Z,26.13
2018-10-17T14:50:46.357Z,35.43
2018-10-17T14:53:14.833Z,20.90
2018-10-17T14:55:43.255Z,23.43
2018-10-17T14:58:11.611Z,26.43
2018-10-17T15:00:40.026Z,18.47
2018-10-17T15:03:08.430Z,23.87
2018-10-17T15:05:36.947Z,22.73
2018-10-17T15:08:05.332Z,24.73
2018-10-17T15:10:33.833Z,30.27
2018-10-17T15:13:02.518Z,21.63
2018-10-17T15:15:30.917Z,32.27
2018-10-17T15:17:59.322Z,27.63
2018-10-17T15:20:27.744Z,25.80
2018-10-17T15:22:56.122Z,38.30
2018-10-17T15:25:24.527Z,46.27
2018-10-17T15:27:52.897Z,24.90
2018-10-17T15:30:21.323Z,19.53
2018-10-17T15:32:49.723Z,24.87
2018-10-17T15:35:18.122Z,34.10
2018-10-17T15:37:46.511Z,49.77
2018-10-17T15:40:14.912Z,49.33
2018-10-17T15:42:43.307Z,31.83
2018-10-17T15:45:11.765Z,33.80
2018-10-17T15:47:40.104Z,51.10
2018-10-17T15:50:08.514Z,37.00
2018-10-17T15:52:36.935Z,36.20
2018-10-17T15:55:05.703Z,48.77
2018-10-17T15:57:34.074Z,43.00
2018-10-17T16:00:02.543Z,39.83
2018-10-17T16:02:30.947Z,55.67
2018-10-17T16:04:59.314Z,47.33
2018-10-17T16:07:27.691Z,52.03
2018-10-17T16:09:56.099Z,49.83
2018-10-17T16:12:24.483Z,69.83
2018-10-17T16:14:52.888Z,80.53
2018-10-17T16:17:21.270Z,97.53
2018-10-17T16:19:49.673Z,101.30
2018-10-17T16:22:18.081Z,118.97
2018-10-17T16:24:46.497Z,126.37
2018-10-17T16:27:14.884Z,127.77
2018-10-17T16:29:43.261Z,108.47
2018-10-17T16:32:11.737Z,111.93
2018-10-17T16:34:40.141Z,99.33
2018-10-17T16:37:08.553Z,72.13
2018-10-17T16:39:36.947Z,69.43
2018-10-17T16:42:05.865Z,66.23
2018-10-17T16:44:34.216Z,58.67
2018-10-17T16:47:02.661Z,66.13
2018-10-17T16:49:31.118Z,66.60
2018-10-17T16:51:59.496Z,48.03
2018-10-17T16:54:27.871Z,63.57
2018-10-17T16:56:56.298Z,58.93
2018-10-17T16:59:24.701Z,56.83
2018-10-17T17:01:53.115Z,82.77
2018-10-17T17:04:21.557Z,63.67
2018-10-17T17:06:50.055Z,60.13
2018-10-17T17:09:18.557Z,52.57
2018-10-17T17:11:46.902Z,56.40
2018-10-17T17:14:15.308Z,56.37
2018-10-17T17:16:43.715Z,64.93
2018-10-17T17:19:12.275Z,48.53
2018-10-17T17:21:40.702Z,49.83
2018-10-17T17:24:09.161Z,50.17
2018-10-17T17:26:37.534Z,59.87
2018-10-17T17:29:06.195Z,43.30
2018-10-17T17:31:34.620Z,53.07
2018-10-17T17:34:03.001Z,70.90
2018-10-17T17:36:31.724Z,57.57
2018-10-17T17:39:00.080Z,61.03
2018-10-17T17:41:28.478Z,56.03
2018-10-17T17:43:56.983Z,53.20
2018-10-17T17:46:25.397Z,47.13
2018-10-17T17:48:53.787Z,56.83
2018-10-17T17:51:22.201Z,63.23
2018-10-17T17:53:50.580Z,62.17
2018-10-17T17:56:18.985Z,53.57
2018-10-17T17:58:47.374Z,50.17
2018-10-17T18:01:15.782Z,58.63
2018-10-17T18:03:44.161Z,87.47
2018-10-17T18:06:12.570Z,70.30
2018-10-17T18:08:40.959Z,71.07
2018-10-17T18:11:18.008Z,50.00
2018-10-17T18:13:46.395Z,52.87
2018-10-17T18:16:14.844Z,65.30
2018-10-17T18:18:43.635Z,53.07
2018-10-17T18:21:12.083Z,65.57
2018-10-17T18:23:41.002Z,60.17
2018-10-17T18:26:09.722Z,56.83
2018-10-17T18:28:38.146Z,67.53
2018-10-17T18:31:06.586Z,94.47
2018-10-17T18:33:34.990Z,88.23
2018-10-17T18:36:03.575Z,62.20
2018-10-17T18:38:31.982Z,50.03
2018-10-17T18:41:00.575Z,56.90
2018-10-17T18:43:28.979Z,75.57
2018-10-17T18:45:57.362Z,69.17
2018-10-17T18:48:26.032Z,89.43
2018-10-17T18:50:54.471Z,70.13
2018-10-17T18:53:22.989Z,73.03
2018-10-17T18:55:52.031Z,88.57
2018-10-17T18:58:20.490Z,83.80
2018-10-17T19:00:48.873Z,80.67
2018-10-17T19:03:17.288Z,66.47
2018-10-17T19:05:45.678Z,66.17
2018-10-17T19:08:14.167Z,54.37
2018-10-17T19:10:42.495Z,52.77
2018-10-17T19:13:10.899Z,56.63
2018-10-17T19:15:39.322Z,73.13
2018-10-17T19:18:07.759Z,73.87
2018-10-17T19:20:36.202Z,75.93
2018-10-17T19:23:04.819Z,81.53
2018-10-17T19:25:33.205Z,65.60
2018-10-17T19:28:01.623Z,46.50
2018-10-17T19:30:30.052Z,57.70
2018-10-17T19:32:58.488Z,55.80
2018-10-17T19:35:26.853Z,72.20
2018-10-17T19:37:55.381Z,54.87
2018-10-17T19:40:23.749Z,61.67
2018-10-17T19:42:52.182Z,81.37
2018-10-17T19:45:20.575Z,57.53
2018-10-17T19:47:49.060Z,54.63
2018-10-17T19:50:17.561Z,51.23
2018-10-17T19:52:45.953Z,59.33
2018-10-17T19:55:14.365Z,63.27
2018-10-17T19:57:42.771Z,72.17
2018-10-17T20:00:13.163Z,53.07
2018-10-17T20:02:42.034Z,70.50
2018-10-17T20:05:10.691Z,58.60
2018-10-17T20:07:39.536Z,58.27
2018-10-17T20:10:07.942Z,79.00
2018-10-17T20:12:36.315Z,60.67
2018-10-17T20:15:05.102Z,60.70
2018-10-17T20:17:33.532Z,61.80
2018-10-17T20:20:02.026Z,45.93
2018-10-17T20:22:30.423Z,48.93
2018-10-17T20:24:58.859Z,54.93
2018-10-17T20:27:27.247Z,56.30
2018-10-17T20:29:55.656Z,70.10
2018-10-17T20:32:24.101Z,58.80
2018-10-17T20:34:52.506Z,67.73
2018-10-17T20:37:20.906Z,58.33
2018-10-17T20:39:49.324Z,67.90
2018-10-17T20:42:17.808Z,61.77
2018-10-17T20:44:46.154Z,52.53
2018-10-17T20:47:14.522Z,61.80
2018-10-17T20:49:43.027Z,67.87
2018-10-17T20:52:11.429Z,58.63
2018-10-17T20:54:39.825Z,48.13
2018-10-17T20:57:08.214Z,55.97
2018-10-17T20:59:36.619Z,60.53
2018-10-17T21:02:05.223Z,48.23
2018-10-17T21:04:33.616Z,69.37
2018-10-17T21:07:02.002Z,62.30
2018-10-17T21:09:30.406Z,78.20
2018-10-17T21:11:58.839Z,54.83
2018-10-17T21:14:27.253Z,66.43
2018-10-17T21:16:55.636Z,58.43
2018-10-17T21:19:24.037Z,53.30
2018-10-17T21:21:52.410Z,47.33
2018-10-17T21:24:20.815Z,68.97
2018-10-17T21:26:49.216Z,78.40
2018-10-17T21:29:17.663Z,64.23
2018-10-17T21:31:46.067Z,53.57
2018-10-17T21:34:14.471Z,58.10
2018-10-17T21:36:42.850Z,55.30
2018-10-17T21:39:12.623Z,57.03
2018-10-17T21:41:41.016Z,66.60
2018-10-17T21:44:10.478Z,66.63
2018-10-17T21:46:39.171Z,55.30
2018-10-17T21:49:08.490Z,71.07
2018-10-17T21:51:36.880Z,60.80
2018-10-17T21:54:05.706Z,53.70
2018-10-17T21:56:34.098Z,54.03
2018-10-17T21:59:02.608Z,69.17
2018-10-17T22:01:31.107Z,51.37
2018-10-17T22:03:59.487Z,59.13
2018-10-17T22:06:27.902Z,54.03
2018-10-17T22:08:56.291Z,52.80
2018-10-17T22:11:24.685Z,46.30
2018-10-17T22:13:53.087Z,49.97
2018-10-17T22:16:21.789Z,48.23
2018-10-17T22:18:50.255Z,52.87
2018-10-17T22:21:18.621Z,50.90
2018-10-17T22:23:46.993Z,51.00
2018-10-17T22:26:15.499Z,54.67
2018-10-17T22:28:43.840Z,47.60
2018-10-17T22:31:12.255Z,65.27
2018-10-17T22:33:40.644Z,53.17
2018-10-17T22:36:09.079Z,56.30
2018-10-17T22:38:37.453Z,52.17
2018-10-17T22:41:05.902Z,57.17
2018-10-17T22:43:34.298Z,57.57
2018-10-17T22:46:02.692Z,54.53
2018-10-17T22:48:31.078Z,51.90
2018-10-17T22:50:59.475Z,58.87
2018-10-17T22:53:27.852Z,41.90
2018-10-17T22:55:56.299Z,59.43
2018-10-17T22:58:24.983Z,52.90
2018-10-17T23:00:53.387Z,52.10
2018-10-17T23:03:21.758Z,54.47
2018-10-17T23:05:50.171Z,57.77
2018-10-17T23:08:18.961Z,59.90
2018-10-17T23:10:47.579Z,85.33
2018-10-17T23:13:15.954Z,78.47
2018-10-17T23:15:44.444Z,106.97
2018-10-17T23:18:12.819Z,85.00
2018-10-17T23:20:41.222Z,82.53
2018-10-17T23:23:09.585Z,72.33
2018-10-17T23:25:37.982Z,79.50
2018-10-17T23:28:06.354Z,57.33
2018-10-17T23:30:34.791Z,63.33
2018-10-17T23:33:03.166Z,75.30
2018-10-17T23:35:31.572Z,65.60
2018-10-17T23:38:00.008Z,65.63
2018-10-17T23:40:28.427Z,65.93
2018-10-17T23:42:56.807Z,65.83
2018-10-17T23:45:25.189Z,71.23
2018-10-17T23:47:53.636Z,62.23
2018-10-17T23:50:21.995Z,62.43
2018-10-17T23:52:50.398Z,65.93
2018-10-17T23:55:18.849Z,62.00
2018-10-17T23:57:47.256Z,61.83
